OIIE/IKA METAR and TAF weather

Enter ICAO airport designator
Station Type Date Time Source
OIIE METAR 2021/08/01 16:00 UTC NOAA

OIIE 011600Z 13010KT 9999 FEW040 SCT100 34/03 Q1008


Station Type Date Time Source
OIIE Decoded METAR 2021/08/01 16:00 UTC NOAA

Station name not available
Aug 01, 2021 - 12:00 PM EDT / 2021.08.01 1600 UTC
Wind: from the SE (130 degrees) at 12 MPH (10 KT):0
Visibility: greater than 7 mile(s):0
Sky conditions: partly cloudy
Temperature: 93 F (34 C)
Dew Point: 37 F (3 C)
Relative Humidity: 14%
Pressure (altimeter): 29.77 in. Hg (1008 hPa)
ob: OIIE 011600Z 13010KT 9999 FEW040 SCT100 34/03 Q1008
cycle: 16

Station Type Date Time Source
OIIE TAF 2021/08/01 12:00 UTC NOAA

TAF OIIE 011130Z 0112/0218 28008KT 8000 FEW040 SCT100
TEMPO 0112/0114 12020KT
TEMPO 0114/0120 12012G22KT FEW035CB SCT040 BKN100 PROB30 TSRA
TEMPO 0121/0204 34016KT
TEMPO 0209/0218 12014G24KT 4000 TSRA SCT030CB SCT035 BKN090

Example: see airport list